20 maja 2022

Czas Kod Pogoda Temp. Widoczność Chmury Wiatr METAR/SPECI
07:30
V
19 °C 10 km+ - 100°   100° 11 kt METAR LFLW 200530Z AUTO 10011KT 080V140 CAVOK 19/07 Q1023 TEMPO 14018G30KT
07:00
V
19 °C 10 km+ - 100°   100° 10 kt METAR LFLW 200500Z AUTO 10010KT 070V130 CAVOK 19/06 Q1023
Starsze dane

Pobierz naszą aplikację

Łatwy dostęp do całej pogody lotniczej na telefonie komórkowym i tablecie.
Z wieloma funkcjami niedostępnymi na stronie internetowej, takimi jak wsparcie offline i osobista lista lotnisk.

My i osoby trzecie śledzimy twoje zachowanie w internecie na naszej stronie za pomocą plików cookie. Jeśli kontynuujesz, zakładamy, że zgadzasz się z naszą polityką plików cookie. Dowiedz się więcej